createdAt,value
2018-09-04T00:00:56.729Z,87.20
2018-09-04T00:03:30.572Z,88.00
2018-09-04T00:06:06.196Z,85.90
2018-09-04T00:08:40.829Z,86.00
2018-09-04T00:11:14.799Z,87.70
2018-09-04T00:13:49.136Z,86.30
2018-09-04T00:16:24.342Z,85.90
2018-09-04T00:18:58.842Z,85.10
2018-09-04T00:21:32.823Z,84.90
2018-09-04T00:24:06.788Z,83.70
2018-09-04T00:26:42.411Z,85.00
2018-09-04T00:29:16.096Z,86.30
2018-09-04T00:31:50.673Z,87.60
2018-09-04T00:34:26.498Z,86.60
2018-09-04T00:37:00.909Z,86.50
2018-09-04T00:39:35.540Z,86.70
2018-09-04T00:42:09.658Z,84.60
2018-09-04T00:44:45.644Z,85.50
2018-09-04T00:47:21.488Z,86.40
2018-09-04T00:49:56.262Z,85.30
2018-09-04T00:52:31.126Z,83.50
2018-09-04T00:55:06.060Z,84.70
2018-09-04T00:57:42.047Z,85.00
2018-09-04T01:00:17.716Z,84.40
2018-09-04T01:02:52.873Z,83.70
2018-09-04T01:05:28.660Z,85.20
2018-09-04T01:08:02.897Z,84.20
2018-09-04T01:10:36.445Z,83.60
2018-09-04T01:13:11.577Z,84.80
2018-09-04T01:15:47.669Z,84.80
2018-09-04T01:18:22.405Z,85.30
2018-09-04T01:20:57.895Z,84.80
2018-09-04T01:23:32.104Z,84.60
2018-09-04T01:26:08.471Z,83.60
2018-09-04T01:28:45.062Z,83.80
2018-09-04T01:31:21.559Z,82.50
2018-09-04T01:33:55.802Z,83.80
2018-09-04T01:36:30.691Z,84.40
2018-09-04T01:39:05.127Z,85.90
2018-09-04T01:41:39.113Z,87.10
2018-09-04T01:44:13.757Z,88.70
2018-09-04T01:46:47.516Z,90.00
2018-09-04T01:49:23.124Z,90.00
2018-09-04T01:51:58.094Z,90.00
2018-09-04T01:54:33.114Z,90.50
2018-09-04T01:57:07.434Z,90.30
2018-09-04T01:59:43.003Z,90.70
2018-09-04T02:02:16.753Z,90.80
2018-09-04T02:07:39.520Z,91.40
2018-09-04T02:10:15.818Z,92.10
2018-09-04T02:12:50.830Z,92.00
2018-09-04T02:15:30.132Z,93.10
2018-09-04T02:18:05.807Z,93.50
2018-09-04T02:20:39.272Z,93.40
2018-09-04T02:23:14.161Z,94.00
2018-09-04T02:25:52.206Z,94.60
2018-09-04T02:28:27.793Z,94.50
2018-09-04T02:31:01.655Z,94.90
2018-09-04T02:33:36.661Z,95.20
2018-09-04T02:36:10.758Z,95.20
2018-09-04T02:38:46.082Z,95.60
2018-09-04T02:41:21.449Z,96.10
2018-09-04T02:43:54.917Z,96.30
2018-09-04T02:46:29.947Z,96.50
2018-09-04T02:49:04.857Z,96.70
2018-09-04T02:51:40.033Z,97.20
2018-09-04T02:56:58.010Z,97.70
2018-09-04T02:59:35.868Z,97.80
2018-09-04T03:02:10.741Z,98.50
2018-09-04T03:04:44.739Z,98.00
2018-09-04T03:07:20.879Z,98.00
2018-09-04T03:09:56.210Z,97.90
2018-09-04T03:12:30.878Z,98.00
2018-09-04T03:15:06.020Z,98.20
2018-09-04T03:17:41.419Z,98.30
2018-09-04T03:20:16.768Z,98.30
2018-09-04T03:22:50.794Z,98.40
2018-09-04T03:25:24.902Z,98.50
2018-09-04T03:28:06.391Z,98.80
2018-09-04T03:30:47.899Z,98.80
2018-09-04T03:33:22.503Z,99.00
2018-09-04T03:35:57.041Z,98.90
2018-09-04T03:38:35.102Z,99.10
2018-09-04T03:41:09.858Z,99.00
2018-09-04T03:43:43.599Z,99.30
2018-09-04T03:46:18.406Z,99.20
2018-09-04T03:48:52.796Z,99.40
2018-09-04T03:54:05.695Z,99.60
2018-09-04T03:56:41.697Z,99.90
2018-09-04T03:59:16.182Z,99.70
2018-09-04T04:01:50.332Z,99.70
2018-09-04T04:04:24.476Z,99.90
2018-09-04T04:07:00.718Z,99.90
2018-09-04T04:09:35.181Z,99.90
2018-09-04T04:12:10.009Z,99.90
2018-09-04T04:14:44.053Z,99.90
2018-09-04T04:17:18.354Z,99.90
2018-09-04T04:19:53.791Z,99.90
2018-09-04T04:22:28.145Z,99.90
2018-09-04T04:25:03.188Z,99.90
2018-09-04T04:27:39.026Z,99.90
2018-09-04T04:30:13.037Z,99.90
2018-09-04T04:32:47.689Z,99.90
2018-09-04T04:35:23.893Z,99.90
2018-09-04T04:37:58.021Z,99.90
2018-09-04T04:40:32.932Z,99.90
2018-09-04T04:43:07.242Z,99.90
2018-09-04T04:49:22.791Z,99.90
2018-09-04T04:51:57.642Z,99.90
2018-09-04T04:54:35.572Z,99.90
2018-09-04T04:57:09.298Z,99.90
2018-09-04T04:59:44.105Z,99.90
2018-09-04T05:02:18.804Z,99.90
2018-09-04T05:04:53.076Z,99.90
2018-09-04T05:07:29.288Z,99.90
2018-09-04T05:10:04.612Z,99.90
2018-09-04T05:12:39.262Z,99.90
2018-09-04T05:15:14.550Z,99.90
2018-09-04T05:17:49.037Z,99.90
2018-09-04T05:20:28.587Z,99.90
2018-09-04T05:23:02.544Z,99.90
2018-09-04T05:25:37.584Z,99.90
2018-09-04T05:28:13.115Z,99.90
2018-09-04T05:30:48.388Z,99.90
2018-09-04T05:33:39.683Z,99.90
2018-09-04T05:36:17.676Z,99.90
2018-09-04T05:38:53.388Z,99.90
2018-09-04T05:41:27.151Z,99.90
2018-09-04T05:44:03.471Z,99.90
2018-09-04T05:46:46.068Z,99.90
2018-09-04T05:49:24.700Z,99.90
2018-09-04T05:51:59.525Z,99.90
2018-09-04T05:54:35.070Z,99.90
2018-09-04T05:57:10.515Z,99.90
2018-09-04T05:59:46.787Z,99.90
2018-09-04T06:02:21.605Z,99.90
2018-09-04T06:04:58.486Z,99.90
2018-09-04T06:07:33.528Z,99.90
2018-09-04T06:10:08.232Z,99.90
2018-09-04T06:12:43.182Z,99.90
2018-09-04T06:15:20.677Z,99.90
2018-09-04T06:17:57.907Z,99.90
2018-09-04T06:20:32.503Z,99.90
2018-09-04T06:23:09.672Z,99.90
2018-09-04T06:25:43.405Z,99.90
2018-09-04T06:28:19.480Z,99.90
2018-09-04T06:30:56.123Z,99.90
2018-09-04T06:33:30.477Z,99.90
2018-09-04T06:36:08.524Z,99.90
2018-09-04T06:38:44.298Z,99.90
2018-09-04T06:41:20.557Z,99.90
2018-09-04T06:43:58.856Z,99.90
2018-09-04T06:46:34.239Z,99.90
2018-09-04T06:49:12.119Z,99.90
2018-09-04T06:51:45.879Z,99.90
2018-09-04T06:54:20.019Z,99.90
2018-09-04T06:56:55.121Z,99.90
2018-09-04T06:59:28.853Z,99.90
2018-09-04T07:02:07.182Z,99.90
2018-09-04T07:04:41.555Z,99.90
2018-09-04T07:07:16.424Z,99.90
2018-09-04T07:09:51.674Z,99.90
2018-09-04T07:12:28.738Z,99.90
2018-09-04T07:15:04.158Z,99.90
2018-09-04T07:17:40.692Z,99.90
2018-09-04T07:20:21.540Z,99.90
2018-09-04T07:22:56.134Z,99.90
2018-09-04T07:25:30.475Z,99.90
2018-09-04T07:28:05.041Z,99.90
2018-09-04T07:30:38.501Z,99.90
2018-09-04T07:33:14.537Z,99.90
2018-09-04T07:35:54.599Z,99.90
2018-09-04T07:38:33.116Z,99.90
2018-09-04T07:41:09.704Z,99.90
2018-09-04T07:43:45.282Z,99.90
2018-09-04T14:34:39.137Z,99.90
2018-09-04T14:37:15.006Z,99.90
2018-09-04T14:39:55.589Z,99.90
2018-09-04T14:42:25.179Z,99.90
2018-09-04T14:45:01.019Z,99.90
2018-09-04T14:47:34.807Z,99.90
2018-09-04T14:50:16.613Z,99.90
2018-09-04T14:52:51.034Z,99.90
2018-09-04T14:55:30.610Z,99.90
2018-09-04T14:58:09.061Z,99.90
2018-09-04T15:00:42.392Z,99.90
2018-09-04T15:03:15.859Z,99.90
2018-09-04T15:05:50.173Z,99.90
2018-09-04T15:08:27.661Z,99.90
2018-09-04T15:11:05.773Z,99.90
2018-09-04T15:13:39.097Z,99.90
2018-09-04T15:16:12.491Z,99.90
2018-09-04T15:18:46.434Z,99.90
2018-09-04T15:21:24.896Z,99.90
2018-09-04T15:23:58.736Z,99.90
2018-09-04T15:26:52.418Z,99.90
2018-09-04T15:29:27.285Z,99.90
2018-09-04T15:32:00.487Z,99.90
2018-09-04T15:34:36.408Z,99.90
2018-09-04T15:37:10.683Z,99.90
2018-09-04T15:39:44.797Z,99.90
2018-09-04T15:42:18.573Z,99.90
2018-09-04T15:44:57.166Z,99.90
2018-09-04T15:47:32.421Z,99.90
2018-09-04T15:50:07.711Z,99.90
2018-09-04T15:52:41.043Z,99.90
2018-09-04T15:55:14.403Z,99.90
2018-09-04T15:57:47.502Z,99.90
2018-09-04T16:00:21.880Z,99.90
2018-09-04T16:02:54.976Z,99.90
2018-09-04T16:05:29.943Z,99.90
2018-09-04T16:08:05.550Z,99.90
2018-09-04T16:10:41.266Z,99.90
2018-09-04T16:13:14.829Z,99.90
2018-09-04T16:15:50.267Z,99.90
2018-09-04T16:18:24.680Z,99.90
2018-09-04T16:20:59.248Z,99.90
2018-09-04T16:23:32.659Z,99.90
2018-09-04T16:26:09.373Z,99.90
2018-09-04T16:28:42.777Z,99.90
2018-09-04T16:31:16.368Z,99.90
2018-09-04T16:33:50.144Z,99.90
2018-09-04T16:36:28.144Z,99.90
2018-09-04T16:39:05.455Z,99.90
2018-09-04T16:41:39.277Z,99.90
2018-09-04T16:44:20.203Z,99.90
2018-09-04T16:46:58.575Z,99.90
2018-09-04T16:49:34.044Z,99.90
2018-09-04T16:52:13.135Z,99.90
2018-09-04T16:54:50.098Z,99.90
2018-09-04T16:57:24.763Z,99.90
2018-09-04T16:59:59.978Z,99.90
2018-09-04T17:02:38.020Z,99.90
2018-09-04T17:05:14.589Z,99.90
2018-09-04T17:07:48.243Z,99.90
2018-09-04T17:10:21.433Z,99.90
2018-09-04T17:12:56.465Z,99.90
2018-09-04T17:15:39.327Z,99.90
2018-09-04T17:18:18.214Z,99.90
2018-09-04T17:20:56.379Z,99.90
2018-09-04T17:23:31.188Z,99.90
2018-09-04T17:26:04.662Z,99.90
2018-09-04T17:31:23.386Z,99.90
2018-09-04T17:36:35.467Z,99.90
2018-09-04T17:42:30.371Z,99.90
2018-09-04T17:45:05.490Z,99.90
2018-09-04T17:47:39.180Z,99.90
2018-09-04T17:50:12.894Z,99.90
2018-09-04T17:52:46.559Z,99.90
2018-09-04T17:55:19.966Z,99.90
2018-09-04T17:57:54.125Z,99.90
2018-09-04T18:00:30.044Z,99.90
2018-09-04T18:03:03.551Z,99.90
2018-09-04T18:05:43.411Z,99.90
2018-09-04T18:08:17.771Z,99.90
2018-09-04T18:10:51.686Z,99.90
2018-09-04T18:13:29.196Z,99.90
2018-09-04T18:16:03.160Z,99.90
2018-09-04T18:18:38.001Z,99.90
2018-09-04T18:21:13.071Z,99.90
2018-09-04T18:24:07.616Z,99.90
2018-09-04T18:26:41.401Z,99.90
2018-09-04T18:29:14.839Z,99.90
2018-09-04T18:31:48.441Z,99.90
2018-09-04T18:34:22.278Z,99.90
2018-09-04T18:36:59.327Z,99.90
2018-09-04T18:39:32.982Z,99.90
2018-09-04T18:42:06.468Z,99.90
2018-09-04T18:44:41.578Z,99.90
2018-09-04T18:47:14.992Z,99.90
2018-09-04T18:49:49.136Z,99.90
2018-09-04T18:52:22.846Z,99.90
2018-09-04T18:55:00.998Z,99.90
2018-09-04T18:57:34.896Z,99.90
2018-09-04T19:00:10.453Z,99.90
2018-09-04T19:02:49.098Z,99.90
2018-09-04T19:05:23.570Z,99.90
2018-09-04T19:07:56.849Z,99.90
2018-09-04T19:10:30.172Z,99.90
2018-09-04T19:13:04.947Z,99.90
2018-09-04T19:15:40.832Z,99.90
2018-09-04T19:18:14.364Z,99.90
2018-09-04T19:20:48.624Z,99.90
2018-09-04T19:23:23.008Z,99.90
2018-09-04T19:25:56.209Z,99.90
2018-09-04T19:28:35.267Z,99.90
2018-09-04T19:31:10.444Z,99.90
2018-09-04T19:33:45.483Z,99.90
2018-09-04T19:36:21.893Z,99.90
2018-09-04T19:38:56.009Z,99.90
2018-09-04T19:41:31.226Z,99.90
2018-09-04T19:44:06.381Z,99.90
2018-09-04T19:46:39.905Z,99.90
2018-09-04T19:49:13.870Z,99.90
2018-09-04T19:51:47.969Z,99.90
2018-09-04T19:54:21.601Z,99.90
2018-09-04T19:56:56.397Z,99.90
2018-09-04T19:59:30.467Z,99.90
2018-09-04T20:02:04.252Z,99.20
2018-09-04T20:04:37.598Z,99.00
2018-09-04T20:07:10.937Z,99.70
2018-09-04T20:09:44.410Z,99.50
2018-09-04T20:12:18.267Z,99.10
2018-09-04T20:14:52.177Z,98.90
2018-09-04T20:17:27.655Z,99.90
2018-09-04T20:20:00.871Z,99.90
2018-09-04T20:22:35.305Z,98.80
2018-09-04T20:25:09.719Z,98.50
2018-09-04T20:27:46.710Z,98.30
2018-09-04T20:30:20.511Z,98.60
2018-09-04T20:32:54.161Z,98.60
2018-09-04T20:35:27.287Z,98.80
2018-09-04T20:38:01.233Z,99.10
2018-09-04T20:40:34.622Z,98.70
2018-09-04T20:43:08.889Z,99.20
2018-09-04T20:45:42.107Z,98.00
2018-09-04T20:48:15.245Z,98.40
2018-09-04T20:50:49.138Z,98.10
2018-09-04T20:53:22.287Z,98.80
2018-09-04T20:55:55.782Z,98.90
2018-09-04T20:58:41.195Z,98.60
2018-09-04T21:01:26.706Z,97.70
2018-09-04T21:04:10.334Z,97.60
2018-09-04T21:06:46.005Z,96.60
2018-09-04T21:09:59.678Z,96.80
2018-09-04T21:12:33.657Z,96.30
2018-09-04T21:15:08.103Z,96.30
2018-09-04T21:17:42.634Z,96.20
2018-09-04T21:20:16.170Z,95.90
2018-09-04T21:22:52.574Z,95.90
2018-09-04T21:25:29.044Z,95.50
2018-09-04T21:28:02.819Z,95.40
2018-09-04T21:30:37.378Z,94.90
2018-09-04T21:33:10.953Z,94.40
2018-09-04T21:35:44.408Z,94.80
2018-09-04T21:38:19.756Z,94.60
2018-09-04T21:40:53.659Z,94.30
2018-09-04T21:43:26.934Z,93.90
2018-09-04T21:46:01.098Z,93.10
2018-09-04T21:48:35.542Z,93.30
2018-09-04T21:51:09.604Z,93.90
2018-09-04T21:53:44.228Z,94.10
2018-09-04T21:56:23.197Z,94.20
2018-09-04T21:58:56.344Z,93.70
2018-09-04T22:01:29.417Z,93.70
2018-09-04T22:04:03.531Z,93.20
2018-09-04T22:06:37.377Z,92.90
2018-09-04T22:09:11.824Z,93.10
2018-09-04T22:11:46.738Z,93.70
2018-09-04T22:14:20.019Z,92.90
2018-09-04T22:16:53.952Z,91.70
2018-09-04T22:19:27.534Z,92.50
2018-09-04T22:22:01.016Z,92.10
2018-09-04T22:24:36.984Z,92.80
2018-09-04T22:27:14.887Z,91.80
2018-09-04T22:29:52.245Z,91.90
2018-09-04T22:32:26.653Z,91.60
2018-09-04T22:35:00.216Z,91.90
2018-09-04T22:37:33.623Z,91.00
2018-09-04T22:40:08.005Z,90.90
2018-09-04T22:42:44.063Z,90.70
2018-09-04T22:45:17.862Z,90.70
2018-09-04T22:47:51.892Z,90.70
2018-09-04T22:50:29.596Z,90.90
2018-09-04T22:53:07.634Z,90.20
2018-09-04T22:55:41.609Z,90.60
2018-09-04T22:58:15.170Z,89.00
2018-09-04T23:00:51.461Z,87.60
2018-09-04T23:03:24.755Z,87.00
2018-09-04T23:05:58.282Z,84.10
2018-09-04T23:08:31.920Z,83.60
2018-09-04T23:11:06.941Z,85.00
2018-09-04T23:13:40.060Z,85.90
2018-09-04T23:16:14.385Z,82.00
2018-09-04T23:18:48.121Z,82.10
2018-09-04T23:21:21.724Z,80.50
2018-09-04T23:23:55.309Z,82.60
2018-09-04T23:30:38.335Z,80.40
2018-09-04T23:33:11.848Z,82.30
2018-09-04T23:35:48.563Z,84.50
2018-09-04T23:38:25.084Z,82.30
2018-09-04T23:41:03.178Z,81.60
2018-09-04T23:43:36.659Z,79.70
2018-09-04T23:46:10.038Z,81.40
2018-09-04T23:48:45.416Z,79.60
2018-09-04T23:51:21.068Z,78.50
2018-09-04T23:53:55.102Z,77.20
2018-09-04T23:56:28.337Z,77.20
2018-09-04T23:59:01.748Z,77.80
